Time;durP1;ratioP1;P1;durP2;ratioP2;P2;SDS_P1;SDS_P2;PMS_P1;PMS_P2;Temp;Humidity;BMP_temperature;BMP_pressure;BME280_temperature;BME280_humidity;BME280_pressure;Samples;Min_cycle;Max_cycle;Signal;HPM_P1;HPM_P2
2021/12/22 00:00:08;;;;;;;18.85;14.73;;;;;;;18.84;44.00;101837.44;5032857;28;20412;-84
2021/12/22 00:02:45;;;;;;;19.65;15.05;;;;;;;18.83;43.98;101831.22;5049112;28;20057;-83
2021/12/22 00:05:19;;;;;;;15.55;13.23;;;;;;;18.84;44.11;101827.59;5034372;28;20483;-84
2021/12/22 00:07:48;;;;;;;19.42;15.93;;;;;;;18.84;43.92;101822.22;5033549;28;20068;-84
2021/12/22 00:10:15;;;;;;;20.40;14.45;;;;;;;18.85;43.86;101825.78;5034800;28;20041;-84
2021/12/22 00:12:43;;;;;;;17.40;14.40;;;;;;;18.85;43.94;101825.78;5033137;28;20037;-84
2021/12/22 00:15:11;;;;;;;15.93;13.98;;;;;;;18.86;43.90;101824.81;5034179;28;20409;-83
2021/12/22 00:17:39;;;;;;;18.20;14.95;;;;;;;18.85;44.00;101826.63;5034283;28;20053;-81
2021/12/22 00:20:08;;;;;;;16.02;13.80;;;;;;;18.86;43.89;101819.44;5065762;28;20045;-83
2021/12/22 00:22:36;;;;;;;18.30;14.77;;;;;;;18.87;43.71;101815.78;5033508;28;20041;-83
2021/12/22 00:25:04;;;;;;;17.48;13.82;;;;;;;18.86;44.02;101812.25;5035026;28;20049;-83
2021/12/22 00:27:32;;;;;;;15.23;13.65;;;;;;;18.86;43.89;101820.28;5033925;28;20053;-83
2021/12/22 00:29:59;;;;;;;16.42;13.55;;;;;;;18.87;43.91;101824.69;5033320;28;20053;-82
2021/12/22 00:32:29;;;;;;;15.50;13.88;;;;;;;18.87;44.04;101813.09;5033605;28;20048;-82
2021/12/22 00:34:56;;;;;;;17.00;13.60;;;;;;;18.87;43.92;101822.00;5031332;28;20060;-82
2021/12/22 00:37:30;;;;;;;16.67;13.75;;;;;;;18.86;44.03;101814.91;5033718;28;20052;-82
2021/12/22 00:39:58;;;;;;;16.63;13.43;;;;;;;18.86;43.98;101820.28;5065374;28;20086;-82
2021/12/22 00:42:26;;;;;;;18.90;14.50;;;;;;;18.86;43.91;101825.66;5065483;28;20042;-82
2021/12/22 00:44:54;;;;;;;16.75;14.02;;;;;;;18.86;44.06;101819.44;5032675;28;20469;-82
2021/12/22 00:47:28;;;;;;;16.20;14.38;;;;;;;18.85;44.08;101812.34;5033322;28;20064;-82
2021/12/22 00:49:57;;;;;;;18.25;13.75;;;;;;;18.86;44.10;101816.75;5028206;28;20061;-82
2021/12/22 00:52:25;;;;;;;17.30;14.45;;;;;;;18.85;44.00;101817.72;5034672;28;20045;-82
2021/12/22 00:54:53;;;;;;;15.35;12.82;;;;;;;18.85;44.02;101820.41;5034203;28;20041;-83
2021/12/22 00:57:20;;;;;;;14.38;12.85;;;;;;;18.85;44.08;101825.78;5034472;28;20068;-83
2021/12/22 00:59:48;;;;;;;17.00;13.68;;;;;;;18.85;44.00;101817.72;5033196;28;20061;-83
2021/12/22 01:02:18;;;;;;;16.60;14.13;;;;;;;18.84;44.03;101827.59;5032890;28;20065;-83
2021/12/22 01:04:47;;;;;;;16.90;13.27;;;;;;;18.83;44.10;101822.31;5033661;28;20131;-82
2021/12/22 01:07:15;;;;;;;16.63;13.40;;;;;;;18.84;44.06;101826.72;5065010;28;20493;-81
2021/12/22 01:09:43;;;;;;;14.05;12.48;;;;;;;18.84;44.12;101830.28;5033627;28;20057;-81
2021/12/22 01:12:10;;;;;;;15.60;13.25;;;;;;;18.84;44.25;101824.03;5033446;28;20401;-81
2021/12/22 01:14:39;;;;;;;17.13;12.68;;;;;;;18.83;44.09;101828.53;5033613;28;20049;-81
2021/12/22 01:17:09;;;;;;;15.32;13.70;;;;;;;18.83;44.16;101833.03;5064708;28;20049;-82
2021/12/22 01:22:29;;;;;;;17.25;14.13;;;;;;;18.83;43.99;101833.91;5037668;28;20072;-81
2021/12/22 01:25:02;;;;;;;14.85;13.00;;;;;;;18.84;44.06;101838.31;5037391;28;20049;-81
2021/12/22 01:27:38;;;;;;;16.15;13.70;;;;;;;18.84;44.06;101838.31;5037626;28;20049;-82
2021/12/22 01:30:18;;;;;;;15.52;13.98;;;;;;;18.86;43.91;101847.13;5037507;28;20042;-82
2021/12/22 01:32:48;;;;;;;15.52;13.50;;;;;;;18.85;43.98;101849.91;5036933;28;20044;-82
2021/12/22 01:35:17;;;;;;;15.02;12.82;;;;;;;18.86;43.94;101841.75;5037364;28;20385;-82
2021/12/22 01:37:46;;;;;;;14.38;12.88;;;;;;;18.86;43.97;101840.91;5037000;28;20400;-82
2021/12/22 01:40:15;;;;;;;15.23;13.63;;;;;;;18.86;44.16;101839.06;5035380;28;20060;-82
2021/12/22 01:42:43;;;;;;;15.48;13.82;;;;;;;18.87;43.89;101842.59;5036638;28;20442;-82
2021/12/22 01:45:29;;;;;;;14.88;13.27;;;;;;;18.87;44.08;101839.94;5037372;28;20045;-82
2021/12/22 01:50:48;;;;;;;16.10;13.68;;;;;;;18.87;43.93;101838.09;5035876;28;20049;-82
2021/12/22 01:53:21;;;;;;;14.18;12.60;;;;;;;18.87;44.17;101838.09;5039042;28;20053;-81
2021/12/22 01:56:01;;;;;;;;;;;;;;;18.86;44.13;101847.13;5043806;28;20053;-82
2021/12/22 01:58:38;;;;;;;15.38;12.48;;;;;;;18.87;43.96;101847.97;5038800;28;19921;-82
2021/12/22 02:01:06;;;;;;;13.80;11.85;;;;;;;18.87;43.95;101838.09;5069412;28;20121;-83
2021/12/22 02:03:33;;;;;;;13.52;12.13;;;;;;;18.86;44.09;101841.75;5037324;28;20049;-83
2021/12/22 02:06:03;;;;;;;15.02;13.15;;;;;;;18.85;44.10;101840.03;5037440;28;20472;-81
2021/12/22 02:08:30;;;;;;;16.70;13.27;;;;;;;18.85;44.25;101837.34;5036941;28;20061;-82
2021/12/22 02:10:57;;;;;;;14.18;12.50;;;;;;;18.84;44.33;101838.31;5036520;28;20053;-82
2021/12/22 02:13:31;;;;;;;14.98;12.57;;;;;;;18.85;44.29;101836.50;5036506;28;20388;-83
2021/12/22 02:16:09;;;;;;;;;;;;;;;18.85;44.17;101836.50;5037003;28;20385;-84
2021/12/22 02:18:40;;;;;;;16.17;12.30;;;;;;;18.85;44.36;101840.03;5037611;28;20399;-84
2021/12/22 02:21:08;;;;;;;13.50;11.95;;;;;;;18.84;44.21;101832.97;5037292;28;20068;-83
2021/12/22 02:23:36;;;;;;;13.43;12.02;;;;;;;18.84;44.28;101830.28;5035978;28;20068;-84
2021/12/22 02:28:48;;;;;;;15.77;12.73;;;;;;;18.83;44.41;101838.41;5036847;28;20376;-84
2021/12/22 02:31:19;;;;;;;15.20;12.45;;;;;;;18.84;44.26;101837.44;5036034;28;20053;-84
2021/12/22 02:33:49;;;;;;;13.90;12.48;;;;;;;18.83;44.39;101836.59;5036318;28;20046;-83
2021/12/22 02:38:47;;;;;;;16.85;12.88;;;;;;;18.83;44.46;101841.09;5035756;28;20037;-83
2021/12/22 02:41:17;;;;;;;14.90;11.77;;;;;;;18.82;44.46;101839.38;5038374;28;20079;-83
2021/12/22 02:43:51;;;;;;;14.57;12.90;;;;;;;18.82;44.26;101834.03;5034708;28;20046;-84
2021/12/22 02:46:22;;;;;;;14.15;12.35;;;;;;;18.82;44.53;101839.38;5036170;28;20098;-83
2021/12/22 02:48:50;;;;;;;13.65;11.50;;;;;;;18.81;44.31;101841.22;5036345;28;20080;-83
2021/12/22 02:51:19;;;;;;;13.43;11.98;;;;;;;18.82;44.43;101842.06;5036454;28;20041;-84
2021/12/22 02:54:14;;;;;;;14.30;12.57;;;;;;;18.81;44.49;101838.53;5036152;28;20038;-84
2021/12/22 02:56:53;;;;;;;14.32;12.35;;;;;;;18.80;44.48;101835.94;5036217;28;20050;-83
2021/12/22 03:02:29;;;;;;;15.15;12.50;;;;;;;18.80;44.49;101833.25;5036366;28;20049;-82
2021/12/22 03:04:58;;;;;;;12.73;11.43;;;;;;;18.78;44.45;101836.03;5033676;28;20056;-82
2021/12/22 03:07:29;;;;;;;15.65;12.02;;;;;;;18.78;44.61;101838.72;5035791;28;20045;-83
2021/12/22 03:10:05;;;;;;;13.48;12.02;;;;;;;18.77;44.40;101837.03;5036394;28;20534;-83
2021/12/22 03:12:35;;;;;;;14.35;12.20;;;;;;;18.77;44.57;101845.06;5068376;28;20045;-82
2021/12/22 03:15:06;;;;;;;15.93;12.15;;;;;;;18.77;44.66;101843.25;5035804;28;20041;-82
2021/12/22 03:17:33;;;;;;;14.93;12.73;;;;;;;18.77;44.60;101853.13;5036401;28;20053;-83
2021/12/22 03:20:01;;;;;;;12.95;10.98;;;;;;;18.76;44.62;101851.41;5035385;28;20041;-83
2021/12/22 03:22:35;;;;;;;14.07;12.05;;;;;;;18.75;44.50;101852.34;5035370;28;20053;-83
2021/12/22 03:25:13;;;;;;;13.25;11.85;;;;;;;18.75;44.70;101852.34;5035613;28;20041;-83
2021/12/22 03:27:48;;;;;;;13.10;11.70;;;;;;;18.75;44.76;101863.94;5034845;28;20396;-82
2021/12/22 03:30:18;;;;;;;13.68;11.43;;;;;;;18.74;44.69;101859.53;5034818;28;20389;-82
2021/12/22 03:32:46;;;;;;;14.50;11.82;;;;;;;18.74;44.68;101848.81;5034446;28;20045;-83
2021/12/22 03:35:19;;;;;;;12.50;11.20;;;;;;;18.74;44.71;101858.69;5034715;28;20068;-83
2021/12/22 03:37:51;;;;;;;14.45;12.02;;;;;;;18.74;44.75;101851.50;5035901;28;20046;-83
2021/12/22 03:40:20;;;;;;;15.45;11.77;;;;;;;18.73;44.84;101860.50;5035578;28;20056;-83
2021/12/22 03:42:49;;;;;;;14.88;11.93;;;;;;;18.74;44.90;101856.84;5034821;28;20064;-83
2021/12/22 03:45:17;;;;;;;12.80;11.50;;;;;;;18.73;44.89;101851.59;5035422;28;20052;-84
2021/12/22 03:47:45;;;;;;;11.25;10.10;;;;;;;18.74;44.83;101856.00;5034332;28;20049;-83
2021/12/22 03:50:14;;;;;;;13.98;11.68;;;;;;;18.72;44.51;101844.53;5034484;28;20049;-80
2021/12/22 03:52:42;;;;;;;13.23;11.90;;;;;;;18.74;44.36;101856.00;5035112;28;20041;-81
2021/12/22 03:55:10;;;;;;;15.27;11.70;;;;;;;18.76;44.45;101854.09;5065890;28;20045;-80
2021/12/22 03:57:38;;;;;;;12.70;11.40;;;;;;;18.76;44.53;101846.91;5065859;28;20052;-80
2021/12/22 04:00:10;;;;;;;13.18;11.13;;;;;;;18.78;44.40;101852.16;5065986;28;20093;-80
2021/12/22 04:02:38;;;;;;;14.15;11.35;;;;;;;18.77;44.35;101851.28;5034833;28;20397;-82
2021/12/22 04:05:07;;;;;;;15.25;12.00;;;;;;;18.77;44.41;101848.59;5032921;28;20457;-81
2021/12/22 04:07:35;;;;;;;12.45;11.20;;;;;;;18.80;44.52;101846.66;5033882;28;20048;-81
2021/12/22 04:10:18;;;;;;;13.65;11.52;;;;;;;18.79;44.41;101853.84;5034465;28;20060;-81
2021/12/22 04:12:48;;;;;;;13.30;11.48;;;;;;;18.79;44.34;101856.53;5032063;28;20049;-81
2021/12/22 04:15:16;;;;;;;12.75;10.93;;;;;;;18.79;44.48;101856.53;5034931;28;20045;-83
2021/12/22 04:17:44;;;;;;;13.77;11.10;;;;;;;18.80;44.31;101865.44;5032257;28;20412;-83
2021/12/22 04:20:12;;;;;;;11.95;10.25;;;;;;;18.78;44.41;101862.88;5033818;28;20049;-83
2021/12/22 04:22:40;;;;;;;12.25;10.90;;;;;;;18.80;44.44;101870.81;5034193;28;20046;-83
2021/12/22 04:25:09;;;;;;;13.23;10.90;;;;;;;18.78;44.36;101869.09;5034688;28;20041;-83
2021/12/22 04:27:37;;;;;;;12.35;11.15;;;;;;;18.78;44.34;101871.78;5035129;28;20049;-83
2021/12/22 04:30:06;;;;;;;11.88;10.65;;;;;;;18.79;44.45;101875.31;5035866;28;20171;-82
2021/12/22 04:32:33;;;;;;;11.98;10.60;;;;;;;18.77;44.35;101878.13;5034166;28;20045;-81
2021/12/22 04:35:01;;;;;;;12.98;11.43;;;;;;;18.78;44.67;101874.47;5034094;28;20064;-82
2021/12/22 04:37:28;;;;;;;11.82;10.63;;;;;;;18.77;44.58;101875.44;5065857;28;20056;-82
2021/12/22 04:39:56;;;;;;;12.65;10.63;;;;;;;18.78;44.56;101876.28;5034146;28;20044;-81
2021/12/22 04:42:23;;;;;;;12.77;10.93;;;;;;;18.77;44.69;101886.16;5033983;28;20056;-82
2021/12/22 04:44:53;;;;;;;11.57;10.38;;;;;;;18.77;44.66;101875.44;5033871;28;20060;-82
2021/12/22 04:47:21;;;;;;;11.48;10.20;;;;;;;18.77;44.61;101882.63;5064844;28;20060;-82
2021/12/22 04:49:48;;;;;;;12.50;10.77;;;;;;;18.77;44.71;101882.63;5033847;28;20050;-83
2021/12/22 04:52:19;;;;;;;10.75;9.65;;;;;;;18.76;44.62;101883.59;5033371;28;20045;-83
2021/12/22 04:55:08;;;;;;;12.85;10.18;;;;;;;18.76;44.55;101891.63;5033874;28;20041;-82
2021/12/22 04:57:34;;;;;;;11.57;10.38;;;;;;;18.75;44.55;101884.53;5035364;28;20094;-83
2021/12/22 05:00:06;;;;;;;12.52;11.23;;;;;;;18.74;44.72;101891.72;5034026;28;20041;-83
2021/12/22 05:02:33;;;;;;;13.45;10.65;;;;;;;18.74;44.50;101891.72;5034107;28;20057;-84
2021/12/22 05:05:02;;;;;;;12.35;11.05;;;;;;;18.73;44.70;101895.38;5033299;28;20049;-83
2021/12/22 05:07:29;;;;;;;12.40;10.73;;;;;;;18.71;44.66;101897.28;5033793;28;20075;-83
2021/12/22 05:09:57;;;;;;;12.65;10.40;;;;;;;18.70;44.82;101892.88;5033109;28;20053;-83
2021/12/22 05:12:24;;;;;;;12.27;10.98;;;;;;;18.71;44.82;101901.78;5033596;28;20397;-82
2021/12/22 05:14:52;;;;;;;12.15;10.90;;;;;;;18.72;44.84;101898.16;5034528;28;20132;-82
2021/12/22 05:17:26;;;;;;;11.80;10.60;;;;;;;18.70;44.87;101892.88;5033581;28;20049;-81
2021/12/22 05:19:54;;;;;;;12.90;10.63;;;;;;;18.71;44.81;101896.44;5033285;28;20053;-82
2021/12/22 05:22:21;;;;;;;11.05;9.93;;;;;;;18.69;44.77;101896.50;5033054;28;20045;-81
2021/12/22 05:24:48;;;;;;;12.13;10.85;;;;;;;18.70;44.79;101900.09;5031508;28;20072;-81
2021/12/22 05:27:16;;;;;;;12.02;10.82;;;;;;;18.70;44.89;101905.44;5065353;28;20499;-81
2021/12/22 05:29:43;;;;;;;12.13;10.18;;;;;;;18.70;44.71;101908.13;5033378;28;20076;-82
2021/12/22 05:32:11;;;;;;;10.40;9.30;;;;;;;18.68;44.70;101902.84;5032967;28;20060;-82
2021/12/22 05:34:38;;;;;;;10.50;9.38;;;;;;;18.69;44.84;101904.56;5033709;28;20048;-82
2021/12/22 05:37:05;;;;;;;12.20;10.38;;;;;;;18.67;45.03;101909.16;5033370;28;20397;-83
2021/12/22 05:39:33;;;;;;;12.05;10.20;;;;;;;18.68;44.94;101908.22;5033210;28;20053;-82
2021/12/22 05:42:01;;;;;;;10.38;9.27;;;;;;;18.68;44.95;101916.25;5033845;28;20049;-83
2021/12/22 05:44:28;;;;;;;12.10;9.90;;;;;;;18.67;44.90;101906.47;5032530;28;20392;-83
2021/12/22 05:46:56;;;;;;;10.73;9.63;;;;;;;18.67;45.05;101906.47;5032850;28;20049;-83
2021/12/22 05:49:23;;;;;;;11.18;9.90;;;;;;;18.67;44.96;101909.16;5032389;28;20049;-82
2021/12/22 05:51:51;;;;;;;10.65;9.55;;;;;;;18.67;44.81;101910.97;5033488;28;20053;-82
2021/12/22 05:54:18;;;;;;;12.10;10.88;;;;;;;18.67;44.72;101917.19;5033653;28;20046;-83
2021/12/22 05:56:45;;;;;;;10.98;9.88;;;;;;;18.67;44.82;101911.81;5033240;28;20052;-82
2021/12/22 05:59:12;;;;;;;11.65;9.48;;;;;;;18.67;44.87;101917.19;5033434;28;20382;-82
2021/12/22 06:01:40;;;;;;;11.70;9.88;;;;;;;18.67;44.87;101922.56;5032881;28;20048;-82
2021/12/22 06:04:08;;;;;;;10.27;9.27;;;;;;;18.66;44.97;101918.16;5032827;28;20045;-82
2021/12/22 06:06:36;;;;;;;10.30;8.70;;;;;;;18.65;45.05;101923.63;5035409;28;20045;-84
2021/12/22 06:09:04;;;;;;;10.60;8.82;;;;;;;18.66;44.99;101930.72;5037670;28;20374;-85
2021/12/22 06:11:32;;;;;;;10.88;9.38;;;;;;;18.65;45.12;101924.50;5037181;28;20084;-84
2021/12/22 06:14:00;;;;;;;10.27;9.13;;;;;;;18.65;45.12;101920.97;5037223;28;20045;-85
2021/12/22 06:16:30;;;;;;;9.95;8.95;;;;;;;18.64;45.17;101929.97;5037903;28;20128;-84
2021/12/22 06:19:02;;;;;;;9.77;8.77;;;;;;;18.64;45.35;101933.50;5045429;28;20072;-84
2021/12/22 06:21:30;;;;;;;10.93;9.63;;;;;;;18.63;45.12;101928.22;5042517;28;20049;-85
2021/12/22 06:23:57;;;;;;;10.43;9.20;;;;;;;18.61;45.29;101936.38;5038900;28;20049;-84
2021/12/22 06:26:25;;;;;;;9.63;8.65;;;;;;;18.64;44.99;101932.66;5037626;28;20045;-85
2021/12/22 06:28:52;;;;;;;9.57;8.65;;;;;;;18.63;44.76;101931.78;5037044;28;20048;-84
2021/12/22 06:31:20;;;;;;;10.35;9.32;;;;;;;18.65;44.73;101940.59;5035747;28;20053;-82
2021/12/22 06:33:47;;;;;;;10.35;8.82;;;;;;;18.63;44.86;101939.81;5036419;28;20058;-82
2021/12/22 06:36:17;;;;;;;9.90;8.90;;;;;;;18.65;45.02;101942.41;5035635;28;20041;-83
2021/12/22 06:38:44;;;;;;;9.98;8.57;;;;;;;18.65;44.94;101940.59;5035465;28;20129;-82
2021/12/22 06:41:12;;;;;;;10.70;9.07;;;;;;;18.64;44.81;101944.25;5035727;28;20060;-83
2021/12/22 06:43:39;;;;;;;9.45;8.45;;;;;;;18.64;44.88;101954.97;5036116;28;20363;-83
2021/12/22 06:46:06;;;;;;;8.93;8.02;;;;;;;18.64;44.95;101954.97;5034258;28;20054;-84
2021/12/22 06:48:34;;;;;;;9.57;8.48;;;;;;;18.64;44.92;101948.75;5035367;28;20117;-85
2021/12/22 06:51:01;;;;;;;9.25;8.25;;;;;;;18.63;45.04;101957.72;5018317;28;20050;-84
2021/12/22 06:53:31;;;;;;;8.75;7.68;;;;;;;18.63;44.93;101953.22;5034901;28;20485;-82
2021/12/22 06:55:58;;;;;;;11.02;9.75;;;;;;;18.63;45.07;101961.28;5036456;28;20053;-83
2021/12/22 06:58:25;;;;;;;9.60;8.65;;;;;;;18.63;45.12;101961.28;5033796;28;20057;-83
2021/12/22 07:00:53;;;;;;;11.13;8.18;;;;;;;18.63;45.30;101963.94;5035408;28;20425;-83
2021/12/22 07:03:20;;;;;;;9.90;8.65;;;;;;;18.63;45.27;101971.16;5036505;28;20041;-82
2021/12/22 07:05:48;;;;;;;9.52;7.90;;;;;;;18.61;45.43;101963.22;5033152;28;20056;-83
2021/12/22 07:08:15;;;;;;;8.15;7.35;;;;;;;18.62;45.16;101970.28;5033397;28;20424;-91
2021/12/22 07:10:43;;;;;;;9.95;7.78;;;;;;;18.61;45.16;101976.63;5033909;28;20057;-83
2021/12/22 07:13:11;;;;;;;13.15;9.57;;;;;;;18.61;45.78;101975.75;5035430;28;20485;-83
2021/12/22 07:15:38;;;;;;;14.43;9.50;;;;;;;18.59;45.87;101986.56;5033288;28;20508;-85
2021/12/22 07:18:08;;;;;;;12.23;8.88;;;;;;;18.58;45.73;101981.31;5035715;28;20056;-84
2021/12/22 07:20:36;;;;;;;13.93;9.80;;;;;;;18.57;45.92;101991.19;5034932;28;20049;-81
2021/12/22 07:23:04;;;;;;;10.93;8.82;;;;;;;18.56;45.81;101986.78;5035768;28;20400;-85
2021/12/22 07:25:31;;;;;;;9.38;8.45;;;;;;;18.56;45.69;101992.16;5035938;28;20045;-86
2021/12/22 07:27:58;;;;;;;13.82;8.10;;;;;;;18.56;45.50;101989.47;5036244;28;20046;-85
2021/12/22 07:30:26;;;;;;;13.55;8.95;;;;;;;18.55;45.44;102001.13;5035838;28;20045;-86
2021/12/22 07:32:59;;;;;;;11.40;8.43;;;;;;;18.56;45.72;101997.50;5036825;28;20370;-87
2021/12/22 07:35:45;;;;;;;9.50;7.45;;;;;;;18.55;45.59;102009.19;5036218;28;20046;-86
2021/12/22 07:38:24;;;;;;;10.77;8.25;;;;;;;18.55;45.62;102014.53;5034743;28;20057;-86
2021/12/22 07:40:53;;;;;;;10.73;8.55;;;;;;;18.54;45.46;102013.69;5035822;28;20037;-84
2021/12/22 07:43:20;;;;;;;11.18;7.85;;;;;;;18.53;45.67;102009.28;5034713;28;20050;-87
2021/12/22 07:45:48;;;;;;;13.32;8.30;;;;;;;18.52;46.07;102014.75;5035173;28;20045;-86
2021/12/22 07:48:16;;;;;;;11.20;8.73;;;;;;;18.51;46.37;102021.06;5033536;28;20064;-84
2021/12/22 07:50:43;;;;;;;10.38;9.27;;;;;;;18.49;45.85;102023.00;5034453;28;20056;-86
2021/12/22 07:53:11;;;;;;;10.77;9.40;;;;;;;18.48;45.59;102029.31;5034266;28;20074;-85
2021/12/22 07:55:38;;;;;;;15.77;10.05;;;;;;;18.46;45.42;102032.09;5035136;28;20053;-85
2021/12/22 07:58:07;;;;;;;15.07;11.23;;;;;;;18.46;45.14;102031.22;5034190;28;20129;-86
2021/12/22 08:00:37;;;;;;;14.05;10.88;;;;;;;18.44;45.05;102031.34;5034378;28;20049;-87
2021/12/22 08:03:05;;;;;;;14.48;10.40;;;;;;;18.43;44.54;102036.78;5065923;28;20492;-87
2021/12/22 08:05:53;;;;;;;14.05;11.57;;;;;;;18.42;44.69;102045.78;5033969;28;20038;-87
2021/12/22 08:08:20;;;;;;;12.38;10.23;;;;;;;18.40;44.47;102037.84;5038349;28;20505;-86
2021/12/22 08:10:49;;;;;;;13.45;11.38;;;;;;;18.39;44.39;102038.81;5051806;28;20056;-86
2021/12/22 08:13:16;;;;;;;12.57;10.43;;;;;;;18.39;44.38;102048.66;5036185;28;20420;-84
2021/12/22 08:15:44;;;;;;;14.23;11.30;;;;;;;18.38;44.18;102044.25;5035925;28;20045;-85
2021/12/22 08:18:12;;;;;;;12.43;10.27;;;;;;;18.38;43.95;102042.44;5035652;28;20413;-89
2021/12/22 08:20:39;;;;;;;11.57;9.55;;;;;;;18.37;44.01;102048.75;5034953;28;20056;-85
2021/12/22 08:23:07;;;;;;;14.25;10.85;;;;;;;18.38;43.85;102044.25;5034760;28;20046;-85
2021/12/22 08:25:35;;;;;;;17.05;10.50;;;;;;;18.38;43.71;102045.09;5034530;28;20052;-85
2021/12/22 08:28:02;;;;;;;15.05;11.27;;;;;;;18.39;43.64;102048.66;5033635;28;20405;-85
2021/12/22 08:30:30;;;;;;;14.02;11.40;;;;;;;18.39;43.62;102045.97;5033993;28;20052;-86
2021/12/22 08:32:59;;;;;;;15.35;11.32;;;;;;;18.40;43.67;102063.81;5034114;28;20076;-85
2021/12/22 08:35:29;;;;;;;14.57;10.50;;;;;;;18.39;43.70;102057.59;5034310;28;20049;-85
2021/12/22 08:40:42;;;;;;;14.18;10.15;;;;;;;18.42;43.70;102056.50;5034408;28;20399;-85
2021/12/22 08:43:10;;;;;;;12.45;9.75;;;;;;;18.41;43.89;102055.66;5033543;28;20378;-85
2021/12/22 08:45:37;;;;;;;12.70;9.25;;;;;;;18.42;43.90;102072.59;5034479;28;20042;-86
2021/12/22 08:48:06;;;;;;;11.80;9.20;;;;;;;18.42;43.92;102072.59;5034307;28;20053;-86
2021/12/22 08:50:33;;;;;;;10.93;9.68;;;;;;;18.41;43.81;102085.16;5032903;28;20045;-86
2021/12/22 08:53:01;;;;;;;11.90;9.43;;;;;;;18.42;43.79;102083.31;5034705;28;20044;-86
2021/12/22 08:55:28;;;;;;;10.75;9.13;;;;;;;18.42;43.80;102084.19;5034263;28;20400;-85
2021/12/22 08:57:56;;;;;;;10.02;9.02;;;;;;;18.42;43.94;102086.00;5034558;28;20488;-85
2021/12/22 09:00:23;;;;;;;13.45;9.57;;;;;;;18.43;44.09;102090.41;5034365;28;20053;-85
2021/12/22 09:02:50;;;;;;;12.02;8.98;;;;;;;18.43;44.01;102093.97;5033708;28;20493;-84
2021/12/22 09:05:19;;;;;;;9.82;8.77;;;;;;;18.42;43.66;102094.91;5033071;28;20049;-85
2021/12/22 09:07:46;;;;;;;12.43;10.20;;;;;;;18.37;43.93;102097.03;5033916;28;20354;-85
2021/12/22 09:10:14;;;;;;;10.60;8.23;;;;;;;18.36;44.09;102089.94;5034719;28;20400;-85
2021/12/22 09:12:42;;;;;;;10.10;8.88;;;;;;;18.37;44.18;102088.13;5034125;28;20064;-84
2021/12/22 09:15:10;;;;;;;9.55;7.85;;;;;;;18.38;43.96;102089.84;5033745;28;20064;-85
2021/12/22 09:17:37;;;;;;;11.88;9.20;;;;;;;18.38;44.42;102092.50;5033358;28;20042;-84
2021/12/22 09:20:07;;;;;;;10.23;7.57;;;;;;;18.38;44.70;102097.88;5034328;28;20053;-85
2021/12/22 09:22:35;;;;;;;10.32;8.60;;;;;;;18.37;44.73;102102.38;5064572;28;20074;-85
2021/12/22 09:25:03;;;;;;;10.32;8.20;;;;;;;18.37;44.62;102106.88;5032343;28;20042;-85
2021/12/22 09:27:30;;;;;;;11.70;8.73;;;;;;;18.38;44.63;102108.59;5034357;28;20053;-84
2021/12/22 09:29:58;;;;;;;9.02;7.80;;;;;;;18.37;44.60;102109.56;5034734;28;20052;-84
2021/12/22 09:32:25;;;;;;;9.25;7.75;;;;;;;18.36;44.65;102113.22;5033055;28;20057;-84
2021/12/22 09:34:53;;;;;;;11.38;8.88;;;;;;;18.37;44.52;102112.25;5033723;28;20056;-84
2021/12/22 09:37:20;;;;;;;11.35;8.20;;;;;;;18.38;44.50;102108.59;5034196;28;20045;-84
2021/12/22 09:39:49;;;;;;;12.45;8.70;;;;;;;18.38;44.54;102114.81;5035984;28;20053;-84
2021/12/22 09:42:17;;;;;;;10.93;8.45;;;;;;;18.38;44.54;102119.31;5037738;28;20049;-84
2021/12/22 09:44:46;;;;;;;9.90;8.57;;;;;;;18.37;44.50;102118.47;5037364;28;20045;-84
2021/12/22 09:47:23;;;;;;;9.70;8.50;;;;;;;18.38;44.32;102122.00;5037740;28;20083;-85
2021/12/22 09:50:12;;;;;;;11.60;8.48;;;;;;;18.37;44.52;102113.09;5019814;28;20061;-84
2021/12/22 09:52:39;;;;;;;9.68;8.68;;;;;;;18.38;44.39;102113.97;5037390;28;20484;-84
2021/12/22 09:55:08;;;;;;;10.13;8.15;;;;;;;18.37;44.27;102109.56;5037336;28;20377;-84
2021/12/22 09:57:36;;;;;;;9.30;7.47;;;;;;;18.38;44.30;102098.72;5037814;28;20045;-84
2021/12/22 10:00:06;;;;;;;9.18;7.85;;;;;;;18.38;44.33;102103.25;5037200;28;20053;-84
2021/12/22 10:02:40;;;;;;;10.73;8.23;;;;;;;18.39;44.50;102104.94;5043551;28;20053;-84
2021/12/22 10:05:08;;;;;;;10.93;8.95;;;;;;;18.38;44.46;102105.91;5037200;28;20453;-84
2021/12/22 10:07:38;;;;;;;9.32;7.72;;;;;;;18.37;44.32;102096.16;5035503;28;20060;-84
2021/12/22 10:10:09;;;;;;;10.18;8.45;;;;;;;18.38;44.36;102095.19;5036462;28;20072;-84
2021/12/22 10:12:37;;;;;;;8.70;7.85;;;;;;;18.38;44.33;102087.16;5037172;28;20049;-84
2021/12/22 10:15:07;;;;;;;8.88;7.97;;;;;;;18.37;44.28;102091.66;5034885;28;20523;-85
2021/12/22 10:17:39;;;;;;;9.85;8.27;;;;;;;18.38;44.30;102092.50;5036164;28;20044;-85
2021/12/22 10:20:14;;;;;;;10.10;8.23;;;;;;;18.38;44.35;102079.09;5036804;28;20057;-84
2021/12/22 10:22:49;;;;;;;9.45;8.18;;;;;;;18.38;44.27;102092.50;5036471;28;20061;-85
2021/12/22 10:25:25;;;;;;;9.27;8.00;;;;;;;18.37;44.25;102085.44;5037938;28;20061;-84
2021/12/22 10:28:15;;;;;;;9.68;7.88;;;;;;;18.37;44.52;102086.28;5037235;28;20046;-84
2021/12/22 10:30:44;;;;;;;9.52;8.32;;;;;;;18.36;44.28;102081.91;5036281;28;20056;-82
2021/12/22 10:33:14;;;;;;;9.02;7.95;;;;;;;18.37;44.18;102085.44;5036130;28;20109;-85
2021/12/22 10:35:47;;;;;;;8.93;8.02;;;;;;;18.37;44.13;102082.75;5037148;28;20404;-84
2021/12/22 10:38:16;;;;;;;;;;;;;;;18.37;44.08;102074.72;5037658;28;20054;-84
2021/12/22 10:40:50;;;;;;;9.90;7.65;;;;;;;18.36;44.18;102073.00;5037425;28;20284;-84
2021/12/22 10:43:24;;;;;;;8.57;7.72;;;;;;;18.37;44.29;102074.72;5035498;28;20061;-84
2021/12/22 10:45:55;;;;;;;9.55;7.95;;;;;;;18.35;44.22;102073.94;5039059;28;20057;-84
2021/12/22 10:51:36;;;;;;;9.88;7.88;;;;;;;18.35;44.22;102088.22;5037647;28;20045;-84
2021/12/22 10:54:09;;;;;;;8.35;7.55;;;;;;;18.35;44.19;102079.28;5036130;28;20041;-84
2021/12/22 10:56:40;;;;;;;9.45;8.55;;;;;;;18.35;44.20;102081.97;5036386;28;20072;-83
2021/12/22 10:59:16;;;;;;;9.57;8.63;;;;;;;18.34;44.16;102086.47;5035899;28;20060;-84
2021/12/22 11:01:48;;;;;;;9.40;7.78;;;;;;;18.34;44.10;102081.13;5035927;28;20053;-84
2021/12/22 11:04:21;;;;;;;10.10;8.20;;;;;;;18.33;44.32;102082.06;5035927;28;20049;-83
2021/12/22 11:06:51;;;;;;;8.40;6.80;;;;;;;18.34;44.39;102086.47;5036011;28;20045;-83
2021/12/22 11:09:20;;;;;;;10.20;7.80;;;;;;;18.33;44.85;102086.59;5038169;28;20061;-83
2021/12/22 11:11:55;;;;;;;9.82;7.30;;;;;;;18.33;44.84;102082.06;5040038;28;20041;-82
2021/12/22 11:14:33;;;;;;;9.30;7.80;;;;;;;18.33;44.88;102090.13;5035533;28;20057;-83
2021/12/22 11:17:05;;;;;;;9.15;6.85;;;;;;;18.33;44.53;102090.13;5018056;28;20057;-83
2021/12/22 11:19:56;;;;;;;8.77;7.30;;;;;;;18.33;44.99;102092.81;5034382;28;20061;-83
2021/12/22 11:22:41;;;;;;;8.30;6.45;;;;;;;18.33;44.91;102095.47;5035284;28;20308;-83
2021/12/22 11:25:12;;;;;;;12.63;7.68;;;;;;;18.33;44.70;102086.59;5034851;28;20053;-83
2021/12/22 11:27:42;;;;;;;8.15;7.28;;;;;;;18.33;44.63;102089.25;5033021;28;20056;-83
2021/12/22 11:30:12;;;;;;;8.63;7.07;;;;;;;18.33;44.58;102092.81;5033144;28;20053;-84
2021/12/22 11:32:40;;;;;;;10.07;7.65;;;;;;;18.33;44.55;102097.31;5035277;28;20050;-83
2021/12/22 11:35:10;;;;;;;11.80;7.88;;;;;;;18.33;44.45;102089.25;5034978;28;20057;-83
2021/12/22 11:37:37;;;;;;;9.77;7.20;;;;;;;18.32;44.47;102092.91;5034620;28;20041;-83
2021/12/22 11:40:09;;;;;;;8.88;7.53;;;;;;;18.33;44.58;102087.44;5034424;28;20056;-83
2021/12/22 11:42:39;;;;;;;8.02;7.22;;;;;;;18.32;44.25;102085.72;5034865;28;20396;-83
2021/12/22 11:45:17;;;;;;;8.20;7.25;;;;;;;18.32;44.46;102087.53;5035303;28;20076;-84